Millerville, Massachusetts
Current Conditions -  °F | °C
As of 5:35 AM on Friday 21 Nov 2014 (Local Time) from KSFZ Reporting Station
Clear Clear  
Wind Chill: 15°   Ceiling: Unl
Heat Index: 25°   Visibility: 10mi
Dew Point:   Wind: 9mph
Humidity: 50%   Direction: 270°W
Pressure: 29.99"   Gusts: NA
Location:  42.0416°N, 71.5423°W
Report Text: KSFZ 211035Z 27008KT 10SM CLR M04/M13 A2999 RMK AO1
Loading
Personal Weather Stations






























Interactive Weather Map New forecast layout! Learn more

10-Day Weather Forecast

Advertisements
Track Severe Weather on mobile